Alamosa, Colorado
Current Conditions -  °F | °C
As of 12:52 AM on Saturday 01 Nov 2014 (Local Time) from KALS Reporting Station
Few Clouds Few Clouds  
Wind Chill: 41°   Ceiling: Unl
Heat Index: 44°   Visibility: 10mi
Dew Point: 28°   Wind: 6mph
Humidity: 53%   Direction: 140°SE
Pressure: 30.25"   Gusts: NA
Location:  37.47°N, 105.87°W
Report Text: KALS 010652Z AUTO 14005KT 10SM FEW090 07/M02 A3025 RMK AO2 SLP184 T00671022 401781072
Loading
Personal Weather Stations






























Interactive Weather Map
Tropical Storm Tracking
New forecast layout! Learn more

10-Day Weather Forecast

Advertisements
Track Severe Weather on mobile